Time;durP1;ratioP1;P1;durP2;ratioP2;P2;SDS_P1;SDS_P2;PMS_P1;PMS_P2;Temp;Humidity;BMP_temperature;BMP_pressure;BME280_temperature;BME280_humidity;BME280_pressure;Samples;Min_cycle;Max_cycle;Signal;HPM_P1;HPM_P2
2022/07/29 00:00:47;;;;;;;2.63;0.90;;;;;;;20.30;79.23;98409.63;5000341;28;20420;-59
2022/07/29 00:03:13;;;;;;;2.65;1.00;;;;;;;20.26;79.13;98400.53;5000926;28;20026;-59
2022/07/29 00:05:39;;;;;;;3.53;1.05;;;;;;;20.13;79.51;98395.28;4998610;28;20026;-59
2022/07/29 00:08:05;;;;;;;2.35;0.85;;;;;;;20.22;78.23;98393.22;5001769;28;20384;-57
2022/07/29 00:10:30;;;;;;;2.33;0.82;;;;;;;20.25;78.54;98404.16;4999825;28;20028;-58
2022/07/29 00:12:55;;;;;;;3.20;0.95;;;;;;;20.17;78.11;98392.03;5000490;28;20026;-58
2022/07/29 00:15:21;;;;;;;2.05;0.80;;;;;;;20.17;78.00;98383.31;5016249;28;20125;-58
2022/07/29 00:17:46;;;;;;;3.05;1.00;;;;;;;19.91;77.90;98347.31;5001275;28;20026;-58
2022/07/29 00:20:11;;;;;;;2.20;0.90;;;;;;;20.08;77.32;98366.91;5015842;28;20493;-57
2022/07/29 00:22:38;;;;;;;1.90;0.80;;;;;;;20.22;77.06;98378.19;5002027;28;20037;-58
2022/07/29 00:25:04;;;;;;;3.20;1.48;;;;;;;20.14;77.42;98375.81;5002280;28;20037;-57
2022/07/29 00:27:29;;;;;;;2.72;0.90;;;;;;;20.20;77.88;98380.22;5002591;28;20018;-57
2022/07/29 00:29:55;;;;;;;4.97;1.10;;;;;;;20.10;78.30;98367.50;5000969;28;20084;-59
2022/07/29 00:32:20;;;;;;;4.25;1.27;;;;;;;19.91;78.26;98347.31;5000478;28;20031;-57
2022/07/29 00:37:29;;;;;;;2.40;0.90;;;;;;;20.03;80.00;98387.03;5001493;28;20127;-58
2022/07/29 00:39:55;;;;;;;3.55;1.27;;;;;;;20.06;79.87;98389.25;5002158;28;20785;-57
2022/07/29 00:42:20;;;;;;;2.40;0.80;;;;;;;19.94;80.58;98373.28;5000452;28;20236;-59
2022/07/29 00:44:46;;;;;;;4.95;1.00;;;;;;;20.05;80.84;98382.38;5001500;28;20036;-58
2022/07/29 00:47:12;;;;;;;2.60;0.88;;;;;;;20.01;81.11;98383.81;5000928;28;20040;-58
2022/07/29 00:49:39;;;;;;;2.90;1.10;;;;;;;19.97;81.06;98378.16;5001305;28;20018;-58
2022/07/29 00:52:05;;;;;;;3.80;1.10;;;;;;;20.04;81.20;98389.47;5000814;28;20038;-59
2022/07/29 00:54:30;;;;;;;3.10;0.98;;;;;;;20.09;79.82;98384.34;5000403;28;20025;-58
2022/07/29 00:56:58;;;;;;;3.88;1.30;;;;;;;20.04;79.49;98370.19;5000854;28;20022;-59
2022/07/29 00:59:23;;;;;;;2.55;1.00;;;;;;;20.13;77.64;98376.81;4998982;28;20121;-59
2022/07/29 01:01:49;;;;;;;2.47;0.90;;;;;;;20.26;76.34;98381.22;5033322;28;20131;-59
2022/07/29 01:04:14;;;;;;;2.72;1.00;;;;;;;20.28;76.22;98382.63;4995276;28;20637;-59
2022/07/29 01:06:39;;;;;;;4.80;1.30;;;;;;;20.21;78.08;98357.31;4998849;28;20026;-57
2022/07/29 01:09:05;;;;;;;3.05;0.98;;;;;;;20.25;78.89;98380.41;4996072;28;20026;-58
2022/07/29 01:11:31;;;;;;;2.90;1.00;;;;;;;20.05;77.97;98334.88;4983459;28;20030;-56
2022/07/29 01:13:56;;;;;;;4.50;1.23;;;;;;;20.22;76.77;98370.25;5001511;28;20460;-59
2022/07/29 01:16:30;;;;;;;3.15;0.90;;;;;;;19.87;76.55;98325.81;4995668;28;20116;-57
2022/07/29 01:19:03;;;;;;;3.50;1.10;;;;;;;19.96;77.17;98352.78;4999973;28;20018;-58
2022/07/29 01:21:43;;;;;;;2.65;1.00;;;;;;;20.08;78.03;98374.84;4998636;28;20022;-58
2022/07/29 01:24:20;;;;;;;3.60;1.13;;;;;;;20.07;78.81;98377.69;4995709;28;20025;-58
2022/07/29 01:27:12;;;;;;;3.40;1.00;;;;;;;20.05;79.22;98375.25;4999411;28;20532;-58
2022/07/29 01:29:53;;;;;;;3.40;1.20;;;;;;;20.02;79.49;98383.56;5015691;28;20034;-59
2022/07/29 01:32:20;;;;;;;3.38;1.30;;;;;;;20.00;79.71;98375.06;4994694;28;20361;-58
2022/07/29 01:35:08;;;;;;;3.58;1.15;;;;;;;20.04;81.11;98370.19;5000890;28;20374;-59
2022/07/29 01:37:47;;;;;;;4.65;1.33;;;;;;;20.02;81.04;98377.50;4998862;28;20033;-58
2022/07/29 01:40:34;;;;;;;3.28;1.20;;;;;;;19.95;81.34;98377.53;4994183;28;20018;-59
2022/07/29 01:43:06;;;;;;;3.47;1.23;;;;;;;19.92;83.39;98373.50;5001482;28;20133;-58
2022/07/29 01:45:43;;;;;;;3.22;1.10;;;;;;;19.68;80.90;98343.34;4997085;28;20054;-59
2022/07/29 01:48:16;;;;;;;3.63;1.10;;;;;;;19.86;80.79;98370.88;4996357;28;20033;-58
2022/07/29 01:51:13;;;;;;;3.10;1.15;;;;;;;19.91;80.16;98379.78;4996312;28;20206;-58
2022/07/29 01:53:50;;;;;;;3.40;1.13;;;;;;;19.90;79.73;98378.16;4948263;28;20812;-59
2022/07/29 01:56:18;;;;;;;3.47;1.02;;;;;;;19.86;79.87;98371.72;4995487;28;20022;-58
2022/07/29 01:58:45;;;;;;;4.03;1.27;;;;;;;19.81;79.63;98360.16;4998774;28;20500;-58
2022/07/29 02:01:11;;;;;;;2.67;0.98;;;;;;;19.84;79.08;98372.91;4999274;28;20022;-57
2022/07/29 02:03:37;;;;;;;2.97;1.02;;;;;;;19.83;79.25;98355.47;4981254;28;20451;-58
2022/07/29 02:06:04;;;;;;;3.28;1.13;;;;;;;19.78;79.67;98356.09;4999979;28;20033;-58
2022/07/29 02:08:30;;;;;;;3.40;1.10;;;;;;;19.82;79.38;98356.50;4997696;28;20030;-57
2022/07/29 02:10:56;;;;;;;3.67;1.10;;;;;;;19.88;79.76;98356.47;4995653;28;20036;-58
2022/07/29 02:13:22;;;;;;;3.03;1.13;;;;;;;19.90;79.37;98353.63;4998348;28;20046;-58
2022/07/29 02:15:49;;;;;;;3.15;1.00;;;;;;;19.86;80.13;98362.97;4998146;28;20101;-58
2022/07/29 02:18:16;;;;;;;3.08;1.17;;;;;;;19.86;80.11;98353.25;4999037;28;20053;-59
2022/07/29 02:20:48;;;;;;;3.50;1.23;;;;;;;19.54;79.12;98318.84;4993626;28;20133;-58
2022/07/29 02:23:17;;;;;;;3.63;1.15;;;;;;;19.80;78.58;98353.25;4994340;28;20034;-59
2022/07/29 02:25:42;;;;;;;4.00;1.20;;;;;;;19.86;79.27;98363.78;5016138;28;20026;-58
2022/07/29 02:28:08;;;;;;;2.88;1.08;;;;;;;19.70;78.79;98335.22;4999646;28;20037;-58
2022/07/29 02:30:36;;;;;;;3.15;1.05;;;;;;;19.87;78.59;98360.13;4984021;28;20033;-59
2022/07/29 02:33:02;;;;;;;3.20;1.20;;;;;;;19.90;79.66;98362.34;4991719;28;20029;-58
2022/07/29 02:35:28;;;;;;;5.95;1.05;;;;;;;19.90;79.09;98366.81;5000227;28;20033;-59
2022/07/29 02:40:39;;;;;;;3.92;1.10;;;;;;;19.89;79.76;98359.91;4997553;28;20041;-59
2022/07/29 02:43:06;;;;;;;4.70;1.30;;;;;;;19.44;79.91;98294.78;4999715;28;20113;-58
2022/07/29 02:45:32;;;;;;;3.55;1.20;;;;;;;19.87;80.29;98354.84;4997677;28;20029;-60
2022/07/29 02:48:00;;;;;;;4.53;1.20;;;;;;;19.86;80.18;98360.31;5000839;28;20061;-59
2022/07/29 02:50:35;;;;;;;6.28;1.35;;;;;;;19.61;79.42;98318.03;4998473;28;20038;-58
2022/07/29 02:53:16;;;;;;;3.30;1.00;;;;;;;19.58;80.16;98327.16;5032464;28;20137;-59
2022/07/29 02:56:04;;;;;;;3.35;1.13;;;;;;;19.83;80.61;98363.41;4997085;28;20018;-58
2022/07/29 02:58:32;;;;;;;3.25;1.10;;;;;;;19.82;80.19;98374.97;4992746;28;20035;-58
2022/07/29 03:01:03;;;;;;;3.28;1.10;;;;;;;19.77;80.45;98359.78;5012505;28;20033;-61
2022/07/29 03:03:31;;;;;;;3.53;1.10;;;;;;;19.62;80.49;98330.97;4997440;28;20030;-58
2022/07/29 03:05:58;;;;;;;2.95;0.95;;;;;;;19.80;80.04;98367.25;4983123;28;20155;-58
2022/07/29 03:08:24;;;;;;;3.55;1.10;;;;;;;19.65;80.29;98345.59;4997278;28;20321;-58
2022/07/29 03:10:51;;;;;;;2.97;1.00;;;;;;;19.80;80.21;98385.72;4999650;28;20017;-58
2022/07/29 03:13:17;;;;;;;3.35;1.25;;;;;;;19.87;79.71;98381.22;4992340;28;20034;-57
2022/07/29 03:15:44;;;;;;;2.83;1.05;;;;;;;19.89;79.18;98383.66;4995645;28;20046;-57
2022/07/29 03:18:09;;;;;;;3.70;1.30;;;;;;;19.90;80.16;98375.53;4997934;28;20497;-58
2022/07/29 03:20:35;;;;;;;3.08;1.08;;;;;;;19.86;80.45;98365.59;5003310;28;20048;-59
2022/07/29 03:23:00;;;;;;;3.20;1.10;;;;;;;19.70;79.97;98349.22;5017608;28;20116;-59
2022/07/29 03:25:27;;;;;;;3.33;1.10;;;;;;;19.92;79.65;98373.50;5002815;28;20060;-58
2022/07/29 03:27:52;;;;;;;4.03;1.13;;;;;;;19.93;79.87;98366.38;5001027;28;20054;-57
2022/07/29 03:30:18;;;;;;;3.42;1.27;;;;;;;19.89;79.29;98362.53;5004264;28;20030;-57
2022/07/29 03:32:43;;;;;;;3.80;1.02;;;;;;;19.91;79.53;98363.94;4994905;28;20091;-58
2022/07/29 03:35:09;;;;;;;3.28;1.20;;;;;;;19.93;79.08;98363.72;5004558;28;20056;-57
2022/07/29 03:37:36;;;;;;;3.53;1.13;;;;;;;19.88;79.12;98360.94;5003368;28;20037;-58
2022/07/29 03:40:03;;;;;;;3.20;1.20;;;;;;;19.90;79.68;98358.91;5001907;28;20399;-58
2022/07/29 03:42:31;;;;;;;3.53;1.30;;;;;;;19.89;80.13;98349.34;5004066;28;20080;-58
2022/07/29 03:44:58;;;;;;;5.50;1.13;;;;;;;19.64;79.86;98307.03;5000968;28;20121;-57
2022/07/29 03:47:28;;;;;;;3.10;1.10;;;;;;;19.70;78.79;98303.56;4985841;28;20377;-56
2022/07/29 03:49:56;;;;;;;2.80;1.00;;;;;;;19.92;79.71;98348.94;5002212;28;20109;-58
2022/07/29 03:52:22;;;;;;;3.43;1.10;;;;;;;19.85;79.63;98337.63;4997238;28;20022;-57
2022/07/29 03:54:47;;;;;;;4.55;1.30;;;;;;;19.89;78.77;98344.88;5001905;28;20563;-57
2022/07/29 03:57:14;;;;;;;2.92;1.10;;;;;;;19.52;78.97;98296.34;4997032;28;20038;-58
2022/07/29 03:59:40;;;;;;;4.68;1.20;;;;;;;19.89;78.54;98352.78;5013531;28;20138;-57
2022/07/29 04:02:06;;;;;;;4.40;1.15;;;;;;;19.83;79.13;98358.13;4998723;28;20465;-57
2022/07/29 04:04:35;;;;;;;3.78;1.10;;;;;;;19.82;78.64;98354.66;5002869;28;20041;-58
2022/07/29 04:07:00;;;;;;;2.53;1.10;;;;;;;19.80;78.36;98355.91;4993857;28;20041;-57
2022/07/29 04:09:26;;;;;;;3.50;1.10;;;;;;;19.78;78.99;98358.75;5004011;28;20026;-58
2022/07/29 04:11:52;;;;;;;3.08;1.13;;;;;;;19.72;79.27;98365.63;5002749;28;20037;-58
2022/07/29 04:14:18;;;;;;;3.25;0.90;;;;;;;19.50;79.77;98327.41;5000030;28;20147;-58
2022/07/29 04:16:43;;;;;;;3.03;0.98;;;;;;;19.47;79.20;98328.63;5001000;28;20747;-60
2022/07/29 04:19:09;;;;;;;3.80;1.20;;;;;;;19.75;79.45;98369.69;5002129;28;20021;-58
2022/07/29 04:21:41;;;;;;;4.10;1.15;;;;;;;19.75;79.42;98374.97;5018429;28;20072;-57
2022/07/29 04:24:07;;;;;;;3.13;1.05;;;;;;;19.59;79.41;98341.97;4981384;28;20014;-57
2022/07/29 04:26:33;;;;;;;2.30;0.80;;;;;;;19.83;81.15;98380.03;5002131;28;20034;-57
2022/07/29 04:28:58;;;;;;;3.40;1.40;;;;;;;19.85;79.71;98371.91;5015291;28;20067;-58
2022/07/29 04:31:24;;;;;;;4.95;1.15;;;;;;;19.83;79.20;98369.47;4999647;28;20427;-57
2022/07/29 04:33:49;;;;;;;3.08;1.10;;;;;;;19.82;79.16;98367.84;4998873;28;20029;-57
2022/07/29 04:36:14;;;;;;;4.65;1.23;;;;;;;19.78;79.66;98364.81;5002281;28;20182;-58
2022/07/29 04:38:40;;;;;;;2.78;1.05;;;;;;;19.67;78.83;98338.28;4991062;28;20517;-59
2022/07/29 04:41:06;;;;;;;3.55;1.27;;;;;;;19.88;78.50;98372.28;5000501;28;20461;-58
2022/07/29 04:43:33;;;;;;;2.80;1.13;;;;;;;19.90;78.77;98375.53;5001567;28;20034;-56
2022/07/29 04:45:59;;;;;;;3.08;0.90;;;;;;;19.94;78.58;98370.66;5000568;28;20068;-57
2022/07/29 04:48:25;;;;;;;2.97;1.20;;;;;;;19.95;78.76;98381.00;5001637;28;20026;-57
2022/07/29 04:50:50;;;;;;;4.22;1.20;;;;;;;19.90;78.51;98369.47;4999265;28;20096;-59
2022/07/29 04:53:15;;;;;;;4.15;1.20;;;;;;;19.96;78.62;98376.50;4977716;28;20799;-58
2022/07/29 04:55:41;;;;;;;3.28;1.25;;;;;;;19.90;79.38;98372.91;5002249;28;20101;-58
2022/07/29 04:58:07;;;;;;;2.80;1.10;;;;;;;19.83;78.97;98366.84;5000913;28;20091;-56
2022/07/29 05:00:32;;;;;;;3.28;1.20;;;;;;;19.93;79.05;98369.00;5000875;28;20627;-58
2022/07/29 05:02:58;;;;;;;3.22;1.10;;;;;;;19.92;79.61;98359.50;5002354;28;20029;-57
2022/07/29 05:05:23;;;;;;;2.97;1.13;;;;;;;19.91;78.89;98365.78;5034314;28;20037;-58
2022/07/29 05:07:48;;;;;;;4.65;1.10;;;;;;;19.88;78.72;98360.94;5008752;28;20026;-57
2022/07/29 05:10:14;;;;;;;3.80;1.10;;;;;;;20.00;77.51;98369.78;5000894;28;20025;-58
2022/07/29 05:12:39;;;;;;;3.08;1.10;;;;;;;19.95;77.33;98373.06;5000506;28;20033;-61
2022/07/29 05:15:05;;;;;;;2.70;1.10;;;;;;;19.90;77.21;98377.38;4978081;28;20195;-58
2022/07/29 05:17:31;;;;;;;4.40;1.30;;;;;;;19.89;76.76;98375.75;4984781;28;20034;-58
2022/07/29 05:19:56;;;;;;;3.80;1.27;;;;;;;19.97;76.09;98380.78;4998626;28;20022;-56
2022/07/29 05:22:21;;;;;;;4.05;1.30;;;;;;;19.98;76.19;98385.03;5000052;28;20040;-59
2022/07/29 05:24:47;;;;;;;3.53;0.90;;;;;;;20.00;76.77;98387.47;5000547;28;20476;-55
2022/07/29 05:27:13;;;;;;;3.67;1.30;;;;;;;19.91;77.20;98382.41;4999503;28;20038;-56
2022/07/29 05:29:38;;;;;;;3.10;0.95;;;;;;;19.98;76.82;98385.03;5000241;28;20022;-57
2022/07/29 05:32:05;;;;;;;3.50;1.20;;;;;;;19.96;77.07;98390.50;5000621;28;20042;-57
2022/07/29 05:34:31;;;;;;;4.60;1.10;;;;;;;19.96;76.70;98371.25;4993741;28;20112;-57
2022/07/29 05:36:56;;;;;;;3.08;1.00;;;;;;;20.10;77.36;98380.72;5000082;28;20547;-57
2022/07/29 05:39:22;;;;;;;2.58;0.93;;;;;;;20.18;77.05;98395.47;5000234;28;20226;-58
2022/07/29 05:41:48;;;;;;;3.13;1.10;;;;;;;19.96;77.09;98355.41;4998821;28;20030;-58
2022/07/29 05:44:13;;;;;;;3.78;1.10;;;;;;;19.95;76.76;98351.97;4981660;28;20022;-58
2022/07/29 05:46:39;;;;;;;3.20;1.17;;;;;;;20.22;76.17;98387.94;4982263;28;20124;-58
2022/07/29 05:49:06;;;;;;;3.00;1.10;;;;;;;20.20;75.67;98393.44;4983662;28;20026;-57
2022/07/29 05:51:32;;;;;;;3.45;1.10;;;;;;;20.23;75.30;98397.50;5000348;28;20131;-57
2022/07/29 05:53:57;;;;;;;3.28;1.35;;;;;;;20.22;75.13;98401.16;4981237;28;20025;-58
2022/07/29 05:56:23;;;;;;;3.40;1.17;;;;;;;19.97;75.17;98383.44;5002541;28;20068;-58
2022/07/29 05:58:48;;;;;;;3.08;1.00;;;;;;;19.96;75.10;98382.59;5011638;28;20034;-58
2022/07/29 06:01:14;;;;;;;3.60;1.20;;;;;;;19.97;76.07;98378.94;5000772;28;20366;-57
2022/07/29 06:03:41;;;;;;;3.00;1.25;;;;;;;20.16;76.45;98405.44;5000772;28;20472;-57
2022/07/29 06:06:07;;;;;;;3.25;1.20;;;;;;;20.31;76.63;98410.44;5026915;28;20160;-57
2022/07/29 06:08:33;;;;;;;5.18;1.35;;;;;;;20.31;75.24;98410.44;4997801;28;20021;-58
2022/07/29 06:10:59;;;;;;;2.85;1.08;;;;;;;20.19;77.64;98386.56;4999501;28;20029;-57
2022/07/29 06:13:25;;;;;;;3.50;1.45;;;;;;;20.43;76.74;98421.94;4999522;28;20412;-59
2022/07/29 06:15:50;;;;;;;3.40;1.55;;;;;;;20.35;76.54;98423.00;4997233;28;20031;-56
2022/07/29 06:18:16;;;;;;;3.72;1.15;;;;;;;20.43;76.21;98419.28;4983160;28;20026;-58
2022/07/29 06:20:41;;;;;;;3.42;1.30;;;;;;;20.25;75.96;98384.88;5001577;28;20103;-58
2022/07/29 06:23:07;;;;;;;3.30;1.10;;;;;;;20.46;75.76;98418.03;5000337;28;20054;-57
2022/07/29 06:25:35;;;;;;;2.97;1.10;;;;;;;20.51;75.58;98426.94;4999933;28;20116;-57
2022/07/29 06:28:00;;;;;;;2.92;1.15;;;;;;;20.57;74.99;98429.75;5000537;28;20507;-57
2022/07/29 06:30:26;;;;;;;3.78;1.20;;;;;;;20.57;75.45;98429.75;4999914;28;20030;-56
2022/07/29 06:32:52;;;;;;;4.47;1.23;;;;;;;20.49;75.89;98417.63;4995704;28;20030;-56
2022/07/29 06:35:17;;;;;;;2.75;1.02;;;;;;;20.70;75.77;98437.66;4993518;28;20050;-58
2022/07/29 06:37:43;;;;;;;3.70;1.30;;;;;;;20.63;76.40;98432.41;4997271;28;20037;-57
2022/07/29 06:42:53;;;;;;;3.67;1.25;;;;;;;20.51;76.23;98397.09;4998207;28;20033;-56
2022/07/29 06:45:18;;;;;;;3.83;1.30;;;;;;;20.65;75.89;98417.13;4997055;28;20030;-58
2022/07/29 06:47:44;;;;;;;4.75;1.42;;;;;;;20.65;75.92;98422.44;4997980;28;20088;-57
2022/07/29 06:50:12;;;;;;;4.30;1.17;;;;;;;20.80;76.33;98439.81;5014953;28;20076;-56
2022/07/29 06:52:38;;;;;;;4.57;1.40;;;;;;;20.70;75.03;98422.59;5005112;28;20116;-56
2022/07/29 06:55:03;;;;;;;3.10;1.25;;;;;;;20.64;74.58;98415.50;5003280;28;20061;-56
2022/07/29 06:57:29;;;;;;;3.28;1.10;;;;;;;20.67;74.61;98422.22;5000518;28;20741;-57
2022/07/29 06:59:56;;;;;;;4.10;1.27;;;;;;;20.69;74.59;98425.44;5004490;28;20530;-58
2022/07/29 07:02:21;;;;;;;4.20;1.17;;;;;;;20.68;73.99;98423.81;4984300;28;20152;-56
2022/07/29 07:04:47;;;;;;;4.32;1.23;;;;;;;20.63;74.55;98413.91;5002715;28;20034;-57
2022/07/29 07:07:12;;;;;;;6.68;1.30;;;;;;;20.74;73.85;98423.78;5003329;28;20113;-56
2022/07/29 07:09:38;;;;;;;3.55;1.10;;;;;;;20.55;73.56;98412.31;5002212;28;20041;-55
2022/07/29 07:12:03;;;;;;;3.40;1.30;;;;;;;20.78;73.04;98441.84;4985407;28;20040;-57
2022/07/29 07:14:29;;;;;;;3.22;1.27;;;;;;;20.73;73.54;98447.75;4999714;28;20037;-56
2022/07/29 07:16:54;;;;;;;4.28;1.33;;;;;;;20.83;72.76;98434.91;5001122;28;20042;-57
2022/07/29 07:19:20;;;;;;;3.13;1.00;;;;;;;20.87;72.82;98437.91;4987178;28;20080;-57
2022/07/29 07:21:45;;;;;;;4.97;1.40;;;;;;;20.92;72.59;98428.31;5001887;28;20481;-57
2022/07/29 07:24:10;;;;;;;4.72;1.30;;;;;;;20.57;72.73;98369.81;4987495;28;20552;-57
2022/07/29 07:26:36;;;;;;;3.65;1.20;;;;;;;20.91;72.43;98415.31;4985499;28;20534;-58
2022/07/29 07:29:01;;;;;;;3.45;1.30;;;;;;;20.86;72.19;98394.00;5002780;28;20026;-56
2022/07/29 07:31:27;;;;;;;3.92;1.30;;;;;;;20.98;71.78;98421.34;4994092;28;20378;-56
2022/07/29 07:33:53;;;;;;;4.32;1.88;;;;;;;21.05;71.46;98418.66;4982053;28;20370;-58
2022/07/29 07:36:18;;;;;;;3.38;1.45;;;;;;;20.88;71.76;98378.75;5003738;28;20036;-57
2022/07/29 07:38:44;;;;;;;4.00;1.40;;;;;;;21.03;71.72;98400.38;5002545;28;20038;-57
2022/07/29 08:02:00;;;;;;;4.07;1.63;;;;;;;22.52;68.98;98388.63;5050900;27;20406;-58
2022/07/29 08:04:26;;;;;;;5.93;2.20;;;;;;;22.81;66.87;98391.44;5051773;28;20138;-58
2022/07/29 08:06:53;;;;;;;7.78;3.00;;;;;;;23.05;65.76;98384.31;5048018;28;20488;-58
2022/07/29 08:09:22;;;;;;;10.68;4.75;;;;;;;23.39;63.30;98389.84;5051215;28;20052;-59
2022/07/29 08:11:47;;;;;;;7.07;3.70;;;;;;;23.61;61.57;98395.34;5053844;28;20217;-59
2022/07/29 08:14:13;;;;;;;6.35;2.13;;;;;;;23.89;61.69;98389.25;5036905;28;20469;-60
2022/07/29 08:16:40;;;;;;;4.95;1.73;;;;;;;24.22;60.71;98390.41;5057562;28;20024;-61
2022/07/29 08:19:05;;;;;;;4.50;1.30;;;;;;;24.46;59.16;98364.53;5050633;28;20484;-61
2022/07/29 08:21:31;;;;;;;4.85;1.67;;;;;;;24.91;58.32;98392.88;5047750;28;20029;-59
2022/07/29 08:24:42;;;;;;;3.00;1.20;;;;;;;24.62;57.72;98365.59;5057056;28;20765;-60
2022/07/29 08:26:43;;;;;;;3.75;1.30;;;;;;;24.94;56.60;98403.03;5049569;28;20049;-59
2022/07/29 08:29:09;;;;;;;3.33;1.33;;;;;;;24.96;56.10;98405.47;5047536;28;20134;-60
2022/07/29 08:31:35;;;;;;;3.55;1.60;;;;;;;24.96;56.99;98394.81;5040893;28;20063;-59
2022/07/29 08:34:02;;;;;;;4.70;2.00;;;;;;;25.34;57.38;98379.94;5036365;28;20506;-60
2022/07/29 08:36:28;;;;;;;5.28;1.58;;;;;;;25.61;53.91;98387.19;5048118;28;20086;-60
2022/07/29 08:38:53;;;;;;;4.72;2.00;;;;;;;25.76;53.94;98389.25;5049615;28;20025;-60
2022/07/29 08:41:19;;;;;;;3.28;1.30;;;;;;;26.16;52.39;98378.25;5053801;28;20471;-60
2022/07/29 08:43:46;;;;;;;3.58;1.35;;;;;;;26.60;51.23;98377.28;5037528;28;20021;-60
2022/07/29 08:46:11;;;;;;;3.83;1.30;;;;;;;26.28;50.55;98346.91;5054891;28;20032;-60
2022/07/29 08:48:37;;;;;;;3.90;1.50;;;;;;;26.94;50.02;98380.50;5031992;28;20036;-60
2022/07/29 08:51:03;;;;;;;3.47;1.20;;;;;;;27.16;49.22;98379.53;5033193;28;20440;-60
2022/07/29 08:53:29;;;;;;;4.13;1.27;;;;;;;27.52;48.65;98377.06;5039722;28;20033;-60
2022/07/29 08:55:55;;;;;;;3.30;1.20;;;;;;;27.29;49.06;98371.13;5071274;28;20037;-59
2022/07/29 08:58:20;;;;;;;4.50;1.70;;;;;;;27.13;49.50;98370.19;5041686;28;20039;-58
2022/07/29 09:00:50;;;;;;;4.47;1.80;;;;;;;27.11;49.41;98326.97;5049147;28;20495;-59
2022/07/29 09:03:19;;;;;;;4.15;1.60;;;;;;;27.53;48.14;98360.81;5049437;28;20024;-59
2022/07/29 09:05:48;;;;;;;3.20;1.30;;;;;;;27.73;49.22;98360.06;5049795;28;20115;-59
2022/07/29 09:08:15;;;;;;;4.70;1.23;;;;;;;27.96;47.80;98355.31;5054334;28;20025;-61
2022/07/29 09:10:40;;;;;;;3.28;1.00;;;;;;;28.05;47.71;98331.56;5047428;28;20051;-61
2022/07/29 09:13:06;;;;;;;3.17;1.20;;;;;;;28.24;46.64;98359.38;5043735;28;20531;-61
2022/07/29 09:15:31;;;;;;;3.70;1.30;;;;;;;28.01;46.49;98363.34;5037633;28;20083;-59
2022/07/29 09:17:58;;;;;;;3.80;1.40;;;;;;;27.71;47.47;98358.69;5021981;28;20506;-58
2022/07/29 09:20:23;;;;;;;3.83;1.13;;;;;;;28.26;46.98;98346.56;5039025;28;20179;-60
2022/07/29 09:22:52;;;;;;;5.93;1.50;;;;;;;28.12;47.06;98348.94;5042615;28;20103;-59
2022/07/29 09:25:34;;;;;;;4.30;1.30;;;;;;;27.93;47.66;98345.97;5029402;28;20125;-59
2022/07/29 09:28:13;;;;;;;3.08;1.05;;;;;;;27.94;48.40;98342.22;5042430;28;20021;-61
2022/07/29 09:30:52;;;;;;;5.55;1.50;;;;;;;27.48;50.16;98314.59;5041307;28;20033;-59
2022/07/29 09:33:18;;;;;;;3.50;1.15;;;;;;;27.93;50.61;98327.28;5038010;28;20030;-59
2022/07/29 09:35:43;;;;;;;3.15;1.13;;;;;;;27.80;48.96;98325.06;5021111;28;20029;-60
2022/07/29 09:38:13;;;;;;;3.38;1.17;;;;;;;27.63;50.83;98319.16;5037926;28;20028;-60
2022/07/29 09:40:38;;;;;;;3.63;1.30;;;;;;;27.52;50.51;98323.69;5047898;28;20032;-60
2022/07/29 09:43:11;;;;;;;3.40;1.20;;;;;;;27.39;49.82;98331.09;5042019;28;20025;-59
2022/07/29 09:45:37;;;;;;;2.88;1.20;;;;;;;26.81;51.72;98304.38;5021726;28;20043;-59
2022/07/29 09:48:35;;;;;;;3.40;1.20;;;;;;;26.89;51.46;98323.63;5045437;28;20029;-60
2022/07/29 09:51:01;;;;;;;3.25;1.27;;;;;;;26.43;52.30;98319.59;5023751;28;20045;-61
2022/07/29 09:53:35;;;;;;;2.83;1.08;;;;;;;26.34;52.08;98328.28;5038500;28;20589;-59
2022/07/29 09:56:01;;;;;;;3.90;1.40;;;;;;;26.25;52.42;98320.78;5034261;28;20111;-60
2022/07/29 09:58:26;;;;;;;4.32;1.40;;;;;;;26.40;52.83;98329.94;5032988;28;20029;-58
2022/07/29 10:00:53;;;;;;;4.07;1.40;;;;;;;26.13;52.98;98324.66;5036554;28;20589;-58
2022/07/29 10:03:19;;;;;;;4.57;1.20;;;;;;;26.08;53.45;98328.88;5022972;28;20658;-57
2022/07/29 10:05:45;;;;;;;3.40;1.10;;;;;;;25.84;52.62;98320.34;5017637;28;20029;-57
2022/07/29 10:08:12;;;;;;;4.10;1.40;;;;;;;25.48;53.29;98300.53;5040218;28;20553;-58
2022/07/29 10:10:42;;;;;;;3.28;1.38;;;;;;;25.60;55.08;98311.06;5062633;28;20504;-61
2022/07/29 10:13:13;;;;;;;5.28;1.50;;;;;;;25.80;52.16;98316.59;5026771;28;20040;-58
2022/07/29 10:15:40;;;;;;;3.50;1.45;;;;;;;25.66;52.86;98307.38;5028211;28;20287;-60
2022/07/29 10:18:11;;;;;;;3.85;1.35;;;;;;;25.56;53.82;98301.97;5030558;28;20368;-60
2022/07/29 10:20:37;;;;;;;3.83;1.40;;;;;;;25.45;53.57;98301.84;5045580;28;20025;-58
2022/07/29 10:23:03;;;;;;;3.83;1.45;;;;;;;25.34;53.92;98262.88;5056669;28;20104;-59
2022/07/29 10:25:29;;;;;;;4.25;1.60;;;;;;;25.77;53.46;98282.47;5062884;28;20531;-58
2022/07/29 10:27:54;;;;;;;3.50;1.30;;;;;;;25.90;52.85;98257.28;5042697;28;20428;-58
2022/07/29 10:30:21;;;;;;;4.07;1.40;;;;;;;26.22;52.78;98277.84;5019660;28;20021;-59
2022/07/29 10:33:08;;;;;;;4.15;1.60;;;;;;;26.17;51.91;98272.47;5017211;28;20026;-58
2022/07/29 10:35:39;;;;;;;3.80;1.50;;;;;;;26.12;51.83;98269.75;5035717;28;20026;-59
2022/07/29 10:38:30;;;;;;;3.70;1.40;;;;;;;26.20;50.18;98270.09;5029699;28;20108;-57
2022/07/29 10:41:34;;;;;;;4.32;1.50;;;;;;;26.41;50.68;98272.91;5022280;28;20090;-59
2022/07/29 10:44:20;;;;;;;4.25;1.52;;;;;;;26.58;48.04;98273.56;5038410;28;20117;-58
2022/07/29 10:46:46;;;;;;;3.97;1.40;;;;;;;26.54;47.20;98253.81;5033868;28;20107;-57
2022/07/29 10:49:15;;;;;;;3.70;1.40;;;;;;;26.58;46.43;98251.44;5022321;28;20037;-57
2022/07/29 10:52:02;;;;;;;4.22;1.40;;;;;;;26.73;46.39;98275.53;5011936;28;20030;-59
2022/07/29 10:54:37;;;;;;;3.30;1.35;;;;;;;26.60;45.80;98268.81;5038357;28;20048;-59
2022/07/29 10:57:25;;;;;;;3.30;1.23;;;;;;;26.74;45.74;98263.81;5032553;28;20661;-58
2022/07/29 11:00:00;;;;;;;3.60;1.50;;;;;;;26.82;46.60;98263.31;5038985;28;20032;-60
2022/07/29 11:02:42;;;;;;;4.03;1.60;;;;;;;26.99;46.13;98246.31;5038727;28;20108;-59
2022/07/29 11:05:09;;;;;;;3.80;1.60;;;;;;;27.10;46.92;98233.84;5040711;28;20060;-59
2022/07/29 11:07:36;;;;;;;4.15;1.65;;;;;;;27.26;47.37;98237.34;5029240;28;20088;-59
2022/07/29 11:10:13;;;;;;;3.80;1.70;;;;;;;27.11;46.17;98219.44;5037988;28;20128;-61
2022/07/29 11:12:42;;;;;;;4.13;1.52;;;;;;;27.00;46.62;98207.94;5038039;28;20036;-57
2022/07/29 11:15:08;;;;;;;5.40;1.60;;;;;;;27.36;46.12;98240.06;5040069;28;20029;-59
2022/07/29 11:17:52;;;;;;;4.97;1.77;;;;;;;27.45;44.71;98211.78;5031581;28;20033;-58
2022/07/29 11:20:49;;;;;;;3.70;1.60;;;;;;;27.63;46.96;98233.72;5034913;28;20063;-59
2022/07/29 11:23:23;;;;;;;4.75;2.05;;;;;;;27.48;46.94;98237.19;5016708;28;20414;-58
2022/07/29 11:26:10;;;;;;;4.68;1.65;;;;;;;27.44;44.95;98234.22;5037792;28;20052;-59
2022/07/29 11:28:43;;;;;;;3.75;1.60;;;;;;;27.54;46.99;98234.22;5023507;28;20039;-56
2022/07/29 11:31:09;;;;;;;3.97;1.50;;;;;;;27.52;46.21;98235.56;5037744;28;20152;-57
2022/07/29 11:33:35;;;;;;;3.78;1.75;;;;;;;27.65;46.36;98239.59;5038271;28;20434;-56
2022/07/29 11:36:10;;;;;;;3.85;1.88;;;;;;;27.81;45.75;98231.31;5020990;28;20032;-58
2022/07/29 11:38:35;;;;;;;3.55;1.50;;;;;;;27.95;45.21;98238.84;5036616;28;20033;-57
2022/07/29 11:41:24;;;;;;;5.22;1.80;;;;;;;27.93;45.56;98236.44;5022076;28;20499;-57
2022/07/29 11:43:51;;;;;;;3.90;1.80;;;;;;;27.82;44.78;98232.16;5039692;28;20036;-56
2022/07/29 11:46:38;;;;;;;4.10;1.60;;;;;;;27.87;45.59;98240.13;5034613;28;20036;-57
2022/07/29 11:49:04;;;;;;;4.72;1.90;;;;;;;27.93;46.08;98235.66;5044508;28;20037;-56
2022/07/29 11:51:29;;;;;;;4.47;1.60;;;;;;;28.01;48.56;98239.66;5038433;28;20452;-57
2022/07/29 11:53:55;;;;;;;3.58;1.52;;;;;;;27.96;46.89;98227.09;5027322;28;20539;-57
2022/07/29 11:56:21;;;;;;;3.50;1.42;;;;;;;28.12;48.70;98233.22;5019045;28;20032;-57
2022/07/29 11:58:46;;;;;;;3.45;1.48;;;;;;;27.81;48.37;98225.19;5021973;28;20031;-57
2022/07/29 12:01:16;;;;;;;4.38;1.80;;;;;;;27.83;49.61;98216.91;5033910;28;20412;-56
2022/07/29 12:03:42;;;;;;;3.92;1.90;;;;;;;27.88;48.42;98228.41;5037217;28;20144;-56
2022/07/29 12:06:14;;;;;;;5.40;2.10;;;;;;;27.79;48.96;98220.09;5030385;28;20388;-58
2022/07/29 12:08:42;;;;;;;3.95;1.92;;;;;;;27.85;49.44;98212.09;5038007;28;20033;-58